^^
Datos históricos de la estación: Murcia-Puente Tocinos
Diario Informe para Abril 20, 2021 Unidades:  Métrico    Ingés   Ambas
Diario Semanal Mensual Anual
  Máxima: Mínima: Promedio:
Temperatura: 17.5 °C 15.9 °C 16.4 °C
Punto de rocio: 14.1 °C 13.6 °C 14 °C
Humedad: 89% 78% 86%
Velocidad viento: 18km/h 9.5km/h 13.3km/h
Racha viento: 29.6km/h - -
Viento- - NNE
Presión: 1011.8 hPa 1009.9 hPa -
Precipitación: 1.5 mm    
 
 
Tabla de datos para Abril 20, 2021
Hora Temperatura Punto de rocio Presión Viento Velocidad viento Racha viento Humedad Intensidad lluvia(por hora) Nubes
20:34 17.5 °C 13.6 °C 1009.9 hPa NE 17.2 km/h 20.4 km/h 78% 0.0 mm
20:39 17.4 °C 13.7 °C 1009.9 hPa NNE 17.8 km/h 25.9 km/h 78.8% 0.0 mm
20:44 17.3 °C 13.7 °C 1010.0 hPa NNE 18 km/h 25.7 km/h 79.1% 0.0 mm
20:49 17.3 °C 13.8 °C 1010.0 hPa NE 15.5 km/h 24.1 km/h 80% 0.0 mm
20:54 17.2 °C 13.8 °C 1010.0 hPa NNE 13.7 km/h 24.1 km/h 80.3% 0.0 mm
20:59 17.2 °C 13.9 °C 1010.0 hPa NNE 13.9 km/h 27.8 km/h 81% 0.0 mm
21:04 17.1 °C 13.9 °C 1010.0 hPa NE 14 km/h 27.4 km/h 81.6% 0.0 mm
21:09 17 °C 13.9 °C 1010.0 hPa NE 14.4 km/h 25.9 km/h 82% 0.0 mm
21:14 16.9 °C 13.9 °C 1010.2 hPa NE 14.8 km/h 29.6 km/h 82.5% 0.0 mm
21:19 16.8 °C 14 °C 1010.2 hPa NE 16.6 km/h 29 km/h 83% 0.0 mm
21:24 16.8 °C 14 °C 1010.2 hPa NNE 17.2 km/h 27.4 km/h 83.6% 0.0 mm
21:29 16.7 °C 13.9 °C 1010.4 hPa NNE 15 km/h 25.7 km/h 83.5% 0.0 mm
21:34 16.7 °C 13.9 °C 1010.4 hPa NNE 14 km/h 24.1 km/h 83.8% 0.0 mm
21:39 16.7 °C 14 °C 1010.4 hPa NNE 13.4 km/h 20.9 km/h 84% 0.0 mm
21:44 16.6 °C 13.9 °C 1010.5 hPa NE 13 km/h 19.8 km/h 84% 0.0 mm
21:49 16.4 °C 13.7 °C 1010.5 hPa NNE 12.5 km/h 22.5 km/h 84% 0.0 mm
21:54 16.4 °C 13.8 °C 1010.5 hPa NNE 12.2 km/h 22.5 km/h 84.5% 0.0 mm
21:59 16.3 °C 13.8 °C 1010.7 hPa NNE 13.1 km/h 24.1 km/h 85% 0.0 mm
22:04 16.3 °C 13.9 °C 1010.7 hPa NNE 14 km/h 24.1 km/h 86% 0.0 mm
22:09 16.2 °C 14 °C 1010.7 hPa NNE 15.3 km/h 25.6 km/h 86.6% 0.0 mm
22:14 16.2 °C 14.1 °C 1011.0 hPa NNE 16.1 km/h 25.9 km/h 87% 0.0 mm
22:19 16.2 °C 14 °C 1011.0 hPa NNE 14.9 km/h 25.7 km/h 87% 0.0 mm
22:24 16.1 °C 13.9 °C 1011.0 hPa NNE 13 km/h 22.2 km/h 87% 0.0 mm
22:29 16.1 °C 14.1 °C 1011.3 hPa NNE 12.1 km/h 22.5 km/h 88% 0.0 mm
22:34 16.1 °C 14.1 °C 1011.3 hPa NNE 11.9 km/h 22.5 km/h 88% 0.0 mm
22:39 16.1 °C 14.1 °C 1011.3 hPa NNE 11.9 km/h 25.9 km/h 88% 0.0 mm
22:44 16 °C 14 °C 1011.3 hPa NNE 11.9 km/h 22.5 km/h 88% 0.0 mm
22:49 16 °C 14 °C 1011.3 hPa NE 13 km/h 22.5 km/h 88% 0.0 mm
22:54 16 °C 14 °C 1011.3 hPa NNE 13.7 km/h 22.5 km/h 88% 0.0 mm
22:59 16 °C 14 °C 1011.5 hPa NNE 12.5 km/h 20.9 km/h 88% 0.0 mm
23:04 16 °C 14 °C 1011.5 hPa NNE 11.9 km/h 20.4 km/h 88.1% 0.0 mm
23:09 15.9 °C 14.1 °C 1011.5 hPa NNE 11.2 km/h 20.9 km/h 89% 0.0 mm
23:14 15.9 °C 14.1 °C 1011.7 hPa NE 11.1 km/h 20.9 km/h 89% 0.0 mm
23:19 15.9 °C 14.1 °C 1011.7 hPa NNE 11.7 km/h 22.5 km/h 89% 0.0 mm
23:24 15.9 °C 14.1 °C 1011.7 hPa NNE 11.9 km/h 22.5 km/h 89% 0.0 mm
23:29 15.9 °C 14.1 °C 1011.8 hPa NNE 11.3 km/h 20.9 km/h 89% 0.0 mm
23:34 15.9 °C 14.1 °C 1011.8 hPa NNE 11.1 km/h 20.9 km/h 89% 0.0 mm
23:39 15.9 °C 14.1 °C 1011.8 hPa NNE 11.7 km/h 20.9 km/h 89% 0.0 mm
23:44 15.9 °C 14.1 °C 1011.8 hPa NNE 11.9 km/h 20.9 km/h 89% 0.0 mm
23:49 15.9 °C 14.1 °C 1011.8 hPa NNE 10.5 km/h 20.4 km/h 89% 0.0 mm
23:54 15.9 °C 14.1 °C 1011.8 hPa NE 9.5 km/h 20.4 km/h 89% 0.0 mm
23:59 15.9 °C 14.1 °C 1011.8 hPa NNE 10 km/h 18.5 km/h 89% 0.0 mm
Murcia-Puente Tocinos, España
Compliments of Weather Underground - 2 mb

La estación de MeteoMurcia.com, publica sus datos en los siguientes proyectos:

Weather Underground PWS IMURCIAP2 Meteoclimatic www.awekas.at

W3Counter
Web Analytics